CYNL

METAR CYNL 190300Z AUTO 04005KT 9SM CLR 20/11 A2959 RMK AO1 SLP001
METAR
LOCATION
CYNL
DATE - TIME
190300Z
WIND
040 TRUE @ 5 KNOTS
VISIBILITY
9SM
RUNWAY VISUAL RANGE
NOT REPORTED
WEATHER
CLOUDINESS
CLR
TEMP / DEWPOINT
20 ºC / 11 ºC
ALTIMETER
29.59 in. Hg
RECENT WEATHER
NOT REPORTED
WIND SHEAR
NOT REPORTED
REMARKS
RMK AO1 SLP001
SEA LEVEL PRESSURE: hPa

CYNL

METAR CYNL 190200Z AUTO 01008KT 9SM CLR 22/10 A2958 RMK AO1 SLP995
METAR
LOCATION
CYNL
DATE - TIME
190200Z
WIND
010 TRUE @ 8 KNOTS
VISIBILITY
9SM
RUNWAY VISUAL RANGE
NOT REPORTED
WEATHER
CLOUDINESS
CLR
TEMP / DEWPOINT
22 ºC / 10 ºC
ALTIMETER
29.58 in. Hg
RECENT WEATHER
NOT REPORTED
WIND SHEAR
NOT REPORTED
REMARKS
RMK AO1 SLP995
SEA LEVEL PRESSURE: hPa

CYNL

METAR CYNL 190100Z AUTO 01014G20KT 9SM CLR 24/07 A2956 RMK AO1 SLP990
METAR
LOCATION
CYNL
DATE - TIME
190100Z
WIND
010 TRUE @ 14 KNOTS GUSTS 20 KNOTS
VISIBILITY
9SM
RUNWAY VISUAL RANGE
NOT REPORTED
WEATHER
CLOUDINESS
CLR
TEMP / DEWPOINT
24 ºC / 7 ºC
ALTIMETER
29.56 in. Hg
RECENT WEATHER
NOT REPORTED
WIND SHEAR
NOT REPORTED
REMARKS
RMK AO1 SLP990
SEA LEVEL PRESSURE: hPa

Your time UTC time
 
 
Weather data provided by AXYS Technologies Inc., www.axystechnologies.com
 
Station History